sensor_id;sensor_type;location;lat;lon;timestamp;P1;durP1;ratioP1;P2;durP2;ratioP2
72573;SDS011;60603;52.548;13.420;2023-04-15T00:01:22;35.58;;;16.88;;
72573;SDS011;60603;52.548;13.420;2023-04-15T00:03:49;36.75;;;17.67;;
72573;SDS011;60603;52.548;13.420;2023-04-15T00:06:16;37.53;;;17.98;;
72573;SDS011;60603;52.548;13.420;2023-04-15T00:08:44;35.22;;;16.83;;
72573;SDS011;60603;52.548;13.420;2023-04-15T00:11:10;38.85;;;17.80;;
72573;SDS011;60603;52.548;13.420;2023-04-15T00:13:37;41.30;;;19.13;;
72573;SDS011;60603;52.548;13.420;2023-04-15T00:16:04;37.72;;;18.02;;
72573;SDS011;60603;52.548;13.420;2023-04-15T00:18:31;38.97;;;18.25;;
72573;SDS011;60603;52.548;13.420;2023-04-15T00:20:57;36.85;;;17.83;;
72573;SDS011;60603;52.548;13.420;2023-04-15T00:23:23;40.67;;;18.40;;
72573;SDS011;60603;52.548;13.420;2023-04-15T00:25:49;43.30;;;19.08;;
72573;SDS011;60603;52.548;13.420;2023-04-15T00:28:15;40.92;;;19.48;;
72573;SDS011;60603;52.548;13.420;2023-04-15T00:30:41;46.08;;;18.88;;
72573;SDS011;60603;52.548;13.420;2023-04-15T00:33:07;40.15;;;19.00;;
72573;SDS011;60603;52.548;13.420;2023-04-15T00:35:34;41.90;;;18.95;;
72573;SDS011;60603;52.548;13.420;2023-04-15T00:38:01;39.38;;;18.50;;
72573;SDS011;60603;52.548;13.420;2023-04-15T00:40:26;45.33;;;19.92;;
72573;SDS011;60603;52.548;13.420;2023-04-15T00:42:52;45.03;;;21.20;;
72573;SDS011;60603;52.548;13.420;2023-04-15T00:45:18;46.55;;;20.90;;
72573;SDS011;60603;52.548;13.420;2023-04-15T00:47:44;47.75;;;20.80;;
72573;SDS011;60603;52.548;13.420;2023-04-15T00:50:10;44.83;;;19.15;;
72573;SDS011;60603;52.548;13.420;2023-04-15T00:52:37;41.92;;;19.33;;
72573;SDS011;60603;52.548;13.420;2023-04-15T00:55:03;46.17;;;21.20;;
72573;SDS011;60603;52.548;13.420;2023-04-15T00:57:30;45.45;;;19.70;;
72573;SDS011;60603;52.548;13.420;2023-04-15T00:59:56;46.50;;;20.50;;
72573;SDS011;60603;52.548;13.420;2023-04-15T01:02:22;46.38;;;19.90;;
72573;SDS011;60603;52.548;13.420;2023-04-15T01:04:48;46.88;;;20.73;;
72573;SDS011;60603;52.548;13.420;2023-04-15T01:07:14;43.95;;;18.70;;
72573;SDS011;60603;52.548;13.420;2023-04-15T01:09:40;41.83;;;19.42;;
72573;SDS011;60603;52.548;13.420;2023-04-15T01:12:06;44.22;;;20.27;;
72573;SDS011;60603;52.548;13.420;2023-04-15T01:14:34;52.50;;;21.88;;
72573;SDS011;60603;52.548;13.420;2023-04-15T01:17:00;48.38;;;21.73;;
72573;SDS011;60603;52.548;13.420;2023-04-15T01:19:26;49.65;;;21.23;;
72573;SDS011;60603;52.548;13.420;2023-04-15T01:21:53;45.15;;;19.42;;
72573;SDS011;60603;52.548;13.420;2023-04-15T01:24:19;48.58;;;21.30;;
72573;SDS011;60603;52.548;13.420;2023-04-15T01:26:45;48.95;;;21.42;;
72573;SDS011;60603;52.548;13.420;2023-04-15T01:29:11;49.72;;;20.98;;
72573;SDS011;60603;52.548;13.420;2023-04-15T01:31:37;52.38;;;22.65;;
72573;SDS011;60603;52.548;13.420;2023-04-15T01:34:03;44.00;;;20.55;;
72573;SDS011;60603;52.548;13.420;2023-04-15T01:36:29;45.55;;;21.00;;
72573;SDS011;60603;52.548;13.420;2023-04-15T01:38:55;48.90;;;21.30;;
72573;SDS011;60603;52.548;13.420;2023-04-15T01:41:27;51.75;;;21.23;;
72573;SDS011;60603;52.548;13.420;2023-04-15T01:43:53;52.70;;;21.58;;
72573;SDS011;60603;52.548;13.420;2023-04-15T01:46:19;46.47;;;20.70;;
72573;SDS011;60603;52.548;13.420;2023-04-15T01:48:45;49.53;;;21.30;;
72573;SDS011;60603;52.548;13.420;2023-04-15T01:51:10;52.90;;;21.60;;
72573;SDS011;60603;52.548;13.420;2023-04-15T01:53:37;55.78;;;22.95;;
72573;SDS011;60603;52.548;13.420;2023-04-15T01:56:03;53.80;;;21.55;;
72573;SDS011;60603;52.548;13.420;2023-04-15T01:58:28;51.47;;;20.67;;
72573;SDS011;60603;52.548;13.420;2023-04-15T02:00:54;50.10;;;21.77;;
72573;SDS011;60603;52.548;13.420;2023-04-15T02:03:20;56.13;;;23.65;;
72573;SDS011;60603;52.548;13.420;2023-04-15T02:05:46;55.05;;;23.27;;
72573;SDS011;60603;52.548;13.420;2023-04-15T02:08:12;50.72;;;21.35;;
72573;SDS011;60603;52.548;13.420;2023-04-15T02:10:38;50.70;;;20.55;;
72573;SDS011;60603;52.548;13.420;2023-04-15T02:13:03;50.58;;;21.50;;
72573;SDS011;60603;52.548;13.420;2023-04-15T02:15:29;48.35;;;21.98;;
72573;SDS011;60603;52.548;13.420;2023-04-15T02:17:55;49.95;;;20.52;;
72573;SDS011;60603;52.548;13.420;2023-04-15T02:20:21;46.63;;;20.52;;
72573;SDS011;60603;52.548;13.420;2023-04-15T02:22:47;46.33;;;21.05;;
72573;SDS011;60603;52.548;13.420;2023-04-15T02:25:13;46.92;;;19.98;;
72573;SDS011;60603;52.548;13.420;2023-04-15T02:27:41;51.83;;;20.98;;
72573;SDS011;60603;52.548;13.420;2023-04-15T02:30:07;47.90;;;21.63;;
72573;SDS011;60603;52.548;13.420;2023-04-15T02:32:33;48.25;;;20.33;;
72573;SDS011;60603;52.548;13.420;2023-04-15T02:35:03;46.47;;;20.00;;
72573;SDS011;60603;52.548;13.420;2023-04-15T02:37:29;49.50;;;21.70;;
72573;SDS011;60603;52.548;13.420;2023-04-15T02:40:00;47.83;;;21.70;;
72573;SDS011;60603;52.548;13.420;2023-04-15T02:42:26;48.78;;;22.08;;
72573;SDS011;60603;52.548;13.420;2023-04-15T02:44:53;46.90;;;20.05;;
72573;SDS011;60603;52.548;13.420;2023-04-15T02:47:19;53.25;;;22.08;;
72573;SDS011;60603;52.548;13.420;2023-04-15T02:49:45;54.35;;;20.95;;
72573;SDS011;60603;52.548;13.420;2023-04-15T02:52:10;50.72;;;21.88;;
72573;SDS011;60603;52.548;13.420;2023-04-15T02:54:36;50.38;;;21.27;;
72573;SDS011;60603;52.548;13.420;2023-04-15T02:57:02;54.47;;;22.95;;
72573;SDS011;60603;52.548;13.420;2023-04-15T02:59:30;44.03;;;20.30;;
72573;SDS011;60603;52.548;13.420;2023-04-15T03:01:56;50.05;;;20.73;;
72573;SDS011;60603;52.548;13.420;2023-04-15T03:04:25;48.53;;;21.65;;
72573;SDS011;60603;52.548;13.420;2023-04-15T03:06:51;46.35;;;20.17;;
72573;SDS011;60603;52.548;13.420;2023-04-15T03:09:17;46.92;;;20.42;;
72573;SDS011;60603;52.548;13.420;2023-04-15T03:11:42;50.45;;;20.00;;
72573;SDS011;60603;52.548;13.420;2023-04-15T03:14:08;46.75;;;20.67;;
72573;SDS011;60603;52.548;13.420;2023-04-15T03:16:33;43.25;;;19.67;;
72573;SDS011;60603;52.548;13.420;2023-04-15T03:18:59;47.08;;;21.60;;
72573;SDS011;60603;52.548;13.420;2023-04-15T03:21:25;47.05;;;21.33;;
72573;SDS011;60603;52.548;13.420;2023-04-15T03:23:52;45.40;;;19.98;;
72573;SDS011;60603;52.548;13.420;2023-04-15T03:26:27;44.17;;;19.50;;
72573;SDS011;60603;52.548;13.420;2023-04-15T03:28:56;51.25;;;21.77;;
72573;SDS011;60603;52.548;13.420;2023-04-15T03:31:22;44.95;;;20.33;;
72573;SDS011;60603;52.548;13.420;2023-04-15T03:33:48;44.65;;;18.90;;
72573;SDS011;60603;52.548;13.420;2023-04-15T03:36:13;48.30;;;20.67;;
72573;SDS011;60603;52.548;13.420;2023-04-15T03:38:40;46.10;;;19.67;;
72573;SDS011;60603;52.548;13.420;2023-04-15T03:41:05;42.88;;;19.60;;
72573;SDS011;60603;52.548;13.420;2023-04-15T03:43:31;42.55;;;19.30;;
72573;SDS011;60603;52.548;13.420;2023-04-15T03:45:57;42.60;;;17.95;;
72573;SDS011;60603;52.548;13.420;2023-04-15T03:48:23;41.17;;;17.95;;
72573;SDS011;60603;52.548;13.420;2023-04-15T03:50:48;40.33;;;17.63;;
72573;SDS011;60603;52.548;13.420;2023-04-15T03:53:14;40.22;;;19.63;;
72573;SDS011;60603;52.548;13.420;2023-04-15T03:55:40;50.15;;;19.73;;
72573;SDS011;60603;52.548;13.420;2023-04-15T03:58:06;47.80;;;19.58;;
72573;SDS011;60603;52.548;13.420;2023-04-15T04:00:31;44.15;;;19.52;;
72573;SDS011;60603;52.548;13.420;2023-04-15T04:02:57;42.65;;;19.38;;
72573;SDS011;60603;52.548;13.420;2023-04-15T04:05:23;42.55;;;18.45;;
72573;SDS011;60603;52.548;13.420;2023-04-15T04:07:48;43.83;;;19.13;;
72573;SDS011;60603;52.548;13.420;2023-04-15T04:10:14;39.22;;;18.70;;
72573;SDS011;60603;52.548;13.420;2023-04-15T04:12:40;41.25;;;19.65;;
72573;SDS011;60603;52.548;13.420;2023-04-15T04:15:05;42.08;;;19.52;;
72573;SDS011;60603;52.548;13.420;2023-04-15T04:17:32;39.55;;;17.05;;
72573;SDS011;60603;52.548;13.420;2023-04-15T04:19:58;41.95;;;19.15;;
72573;SDS011;60603;52.548;13.420;2023-04-15T04:22:24;38.35;;;18.45;;
72573;SDS011;60603;52.548;13.420;2023-04-15T04:24:49;36.78;;;16.70;;
72573;SDS011;60603;52.548;13.420;2023-04-15T04:27:15;39.30;;;17.45;;
72573;SDS011;60603;52.548;13.420;2023-04-15T04:29:41;38.75;;;17.52;;
72573;SDS011;60603;52.548;13.420;2023-04-15T04:32:07;36.05;;;17.80;;
72573;SDS011;60603;52.548;13.420;2023-04-15T04:34:32;41.72;;;19.48;;
72573;SDS011;60603;52.548;13.420;2023-04-15T04:36:58;39.67;;;18.05;;
72573;SDS011;60603;52.548;13.420;2023-04-15T04:39:24;36.17;;;18.40;;
72573;SDS011;60603;52.548;13.420;2023-04-15T04:41:50;44.03;;;19.02;;
72573;SDS011;60603;52.548;13.420;2023-04-15T04:44:18;40.50;;;17.30;;
72573;SDS011;60603;52.548;13.420;2023-04-15T04:46:44;40.13;;;18.27;;
72573;SDS011;60603;52.548;13.420;2023-04-15T04:49:10;37.08;;;16.23;;
72573;SDS011;60603;52.548;13.420;2023-04-15T04:51:35;37.22;;;17.77;;
72573;SDS011;60603;52.548;13.420;2023-04-15T04:54:01;37.30;;;17.33;;
72573;SDS011;60603;52.548;13.420;2023-04-15T04:56:27;39.40;;;17.35;;
72573;SDS011;60603;52.548;13.420;2023-04-15T04:58:52;34.00;;;16.50;;
72573;SDS011;60603;52.548;13.420;2023-04-15T05:01:18;35.28;;;17.05;;
72573;SDS011;60603;52.548;13.420;2023-04-15T05:03:44;34.50;;;16.88;;
72573;SDS011;60603;52.548;13.420;2023-04-15T05:06:10;34.08;;;17.15;;
72573;SDS011;60603;52.548;13.420;2023-04-15T05:08:35;35.38;;;17.70;;
72573;SDS011;60603;52.548;13.420;2023-04-15T05:11:02;29.67;;;16.15;;
72573;SDS011;60603;52.548;13.420;2023-04-15T05:13:28;33.42;;;16.45;;
72573;SDS011;60603;52.548;13.420;2023-04-15T05:15:54;32.58;;;16.45;;
72573;SDS011;60603;52.548;13.420;2023-04-15T05:18:20;32.22;;;16.10;;
72573;SDS011;60603;52.548;13.420;2023-04-15T05:20:46;28.83;;;14.23;;
72573;SDS011;60603;52.548;13.420;2023-04-15T05:23:14;34.00;;;15.65;;
72573;SDS011;60603;52.548;13.420;2023-04-15T05:25:40;30.35;;;15.45;;
72573;SDS011;60603;52.548;13.420;2023-04-15T05:28:06;28.02;;;14.88;;
72573;SDS011;60603;52.548;13.420;2023-04-15T05:30:32;28.25;;;15.38;;
72573;SDS011;60603;52.548;13.420;2023-04-15T05:32:57;25.17;;;14.00;;
72573;SDS011;60603;52.548;13.420;2023-04-15T05:35:23;29.58;;;15.27;;
72573;SDS011;60603;52.548;13.420;2023-04-15T05:37:49;27.48;;;14.20;;
72573;SDS011;60603;52.548;13.420;2023-04-15T05:40:15;27.33;;;14.82;;
72573;SDS011;60603;52.548;13.420;2023-04-15T05:42:40;26.38;;;13.93;;
72573;SDS011;60603;52.548;13.420;2023-04-15T05:45:06;26.98;;;14.35;;
72573;SDS011;60603;52.548;13.420;2023-04-15T05:47:36;26.30;;;14.15;;
72573;SDS011;60603;52.548;13.420;2023-04-15T05:50:02;27.42;;;13.35;;
72573;SDS011;60603;52.548;13.420;2023-04-15T05:52:29;27.30;;;13.13;;
72573;SDS011;60603;52.548;13.420;2023-04-15T05:54:55;25.83;;;12.80;;
72573;SDS011;60603;52.548;13.420;2023-04-15T05:57:21;23.58;;;12.85;;
72573;SDS011;60603;52.548;13.420;2023-04-15T05:59:47;25.95;;;13.48;;
72573;SDS011;60603;52.548;13.420;2023-04-15T06:02:13;23.65;;;12.02;;
72573;SDS011;60603;52.548;13.420;2023-04-15T06:04:39;21.90;;;11.45;;
72573;SDS011;60603;52.548;13.420;2023-04-15T06:07:04;22.40;;;11.25;;
72573;SDS011;60603;52.548;13.420;2023-04-15T06:09:30;21.50;;;11.43;;
72573;SDS011;60603;52.548;13.420;2023-04-15T06:11:56;21.63;;;12.75;;
72573;SDS011;60603;52.548;13.420;2023-04-15T06:14:23;21.80;;;11.68;;
72573;SDS011;60603;52.548;13.420;2023-04-15T06:16:49;21.08;;;10.90;;
72573;SDS011;60603;52.548;13.420;2023-04-15T06:19:14;18.83;;;11.25;;
72573;SDS011;60603;52.548;13.420;2023-04-15T06:21:40;20.00;;;10.98;;
72573;SDS011;60603;52.548;13.420;2023-04-15T06:24:06;17.30;;;10.13;;
72573;SDS011;60603;52.548;13.420;2023-04-15T06:26:31;18.08;;;10.07;;
72573;SDS011;60603;52.548;13.420;2023-04-15T06:28:57;19.30;;;11.40;;
72573;SDS011;60603;52.548;13.420;2023-04-15T06:31:23;18.45;;;9.60;;
72573;SDS011;60603;52.548;13.420;2023-04-15T06:33:48;16.90;;;9.75;;
72573;SDS011;60603;52.548;13.420;2023-04-15T06:36:14;22.48;;;10.93;;
72573;SDS011;60603;52.548;13.420;2023-04-15T06:38:40;15.45;;;8.35;;
72573;SDS011;60603;52.548;13.420;2023-04-15T06:41:06;16.15;;;8.48;;
72573;SDS011;60603;52.548;13.420;2023-04-15T06:43:32;15.50;;;9.30;;
72573;SDS011;60603;52.548;13.420;2023-04-15T06:45:57;15.45;;;9.40;;
72573;SDS011;60603;52.548;13.420;2023-04-15T06:48:23;12.57;;;7.30;;
72573;SDS011;60603;52.548;13.420;2023-04-15T06:50:49;16.60;;;7.88;;
72573;SDS011;60603;52.548;13.420;2023-04-15T06:53:15;16.15;;;8.50;;
72573;SDS011;60603;52.548;13.420;2023-04-15T06:55:41;14.10;;;8.18;;
72573;SDS011;60603;52.548;13.420;2023-04-15T06:58:07;14.63;;;8.30;;
72573;SDS011;60603;52.548;13.420;2023-04-15T07:00:32;14.75;;;7.10;;
72573;SDS011;60603;52.548;13.420;2023-04-15T07:02:58;13.40;;;7.72;;
72573;SDS011;60603;52.548;13.420;2023-04-15T07:05:28;14.77;;;7.60;;
72573;SDS011;60603;52.548;13.420;2023-04-15T07:07:54;14.48;;;8.00;;
72573;SDS011;60603;52.548;13.420;2023-04-15T07:10:20;13.32;;;7.88;;
72573;SDS011;60603;52.548;13.420;2023-04-15T07:12:46;14.02;;;7.68;;
72573;SDS011;60603;52.548;13.420;2023-04-15T07:15:12;11.50;;;7.05;;
72573;SDS011;60603;52.548;13.420;2023-04-15T07:17:39;17.50;;;8.05;;
72573;SDS011;60603;52.548;13.420;2023-04-15T07:20:05;13.43;;;7.72;;
72573;SDS011;60603;52.548;13.420;2023-04-15T07:22:32;17.40;;;8.75;;
72573;SDS011;60603;52.548;13.420;2023-04-15T07:24:58;16.02;;;9.10;;
72573;SDS011;60603;52.548;13.420;2023-04-15T07:27:24;19.08;;;8.70;;
72573;SDS011;60603;52.548;13.420;2023-04-15T07:29:50;14.93;;;8.20;;
72573;SDS011;60603;52.548;13.420;2023-04-15T07:32:16;14.77;;;9.30;;
72573;SDS011;60603;52.548;13.420;2023-04-15T07:34:42;16.65;;;9.15;;
72573;SDS011;60603;52.548;13.420;2023-04-15T07:37:09;13.45;;;8.57;;
72573;SDS011;60603;52.548;13.420;2023-04-15T07:39:34;15.73;;;9.02;;
72573;SDS011;60603;52.548;13.420;2023-04-15T07:42:01;14.60;;;9.25;;
72573;SDS011;60603;52.548;13.420;2023-04-15T07:44:28;16.02;;;9.40;;
72573;SDS011;60603;52.548;13.420;2023-04-15T07:46:55;15.85;;;9.15;;
72573;SDS011;60603;52.548;13.420;2023-04-15T07:49:20;15.45;;;8.95;;
72573;SDS011;60603;52.548;13.420;2023-04-15T07:51:47;16.85;;;9.20;;
72573;SDS011;60603;52.548;13.420;2023-04-15T07:54:13;15.15;;;9.60;;
72573;SDS011;60603;52.548;13.420;2023-04-15T07:56:39;16.90;;;9.43;;
72573;SDS011;60603;52.548;13.420;2023-04-15T07:59:05;15.57;;;9.82;;
72573;SDS011;60603;52.548;13.420;2023-04-15T08:01:31;15.38;;;8.77;;
72573;SDS011;60603;52.548;13.420;2023-04-15T08:03:57;17.25;;;9.10;;
72573;SDS011;60603;52.548;13.420;2023-04-15T08:06:24;18.42;;;10.02;;
72573;SDS011;60603;52.548;13.420;2023-04-15T08:08:49;16.55;;;9.63;;
72573;SDS011;60603;52.548;13.420;2023-04-15T08:11:15;16.63;;;9.35;;
72573;SDS011;60603;52.548;13.420;2023-04-15T08:13:41;16.83;;;9.63;;
72573;SDS011;60603;52.548;13.420;2023-04-15T08:18:49;17.88;;;9.45;;
72573;SDS011;60603;52.548;13.420;2023-04-15T08:21:16;15.15;;;9.18;;
72573;SDS011;60603;52.548;13.420;2023-04-15T08:23:43;18.63;;;10.13;;
72573;SDS011;60603;52.548;13.420;2023-04-15T08:26:09;20.40;;;10.00;;
72573;SDS011;60603;52.548;13.420;2023-04-15T08:28:37;13.82;;;9.15;;
72573;SDS011;60603;52.548;13.420;2023-04-15T08:31:03;15.82;;;9.82;;
72573;SDS011;60603;52.548;13.420;2023-04-15T08:33:29;17.02;;;9.43;;
72573;SDS011;60603;52.548;13.420;2023-04-15T08:35:55;16.85;;;10.48;;
72573;SDS011;60603;52.548;13.420;2023-04-15T08:38:21;16.17;;;9.98;;
72573;SDS011;60603;52.548;13.420;2023-04-15T08:40:47;16.52;;;9.13;;
72573;SDS011;60603;52.548;13.420;2023-04-15T08:43:56;15.30;;;10.13;;
72573;SDS011;60603;52.548;13.420;2023-04-15T08:46:04;18.88;;;9.82;;
72573;SDS011;60603;52.548;13.420;2023-04-15T08:48:31;17.90;;;11.38;;
72573;SDS011;60603;52.548;13.420;2023-04-15T08:50:57;16.08;;;9.32;;
72573;SDS011;60603;52.548;13.420;2023-04-15T08:53:23;18.27;;;11.18;;
72573;SDS011;60603;52.548;13.420;2023-04-15T08:55:50;16.77;;;10.20;;
72573;SDS011;60603;52.548;13.420;2023-04-15T08:58:16;17.58;;;10.27;;
72573;SDS011;60603;52.548;13.420;2023-04-15T09:00:44;17.75;;;11.18;;
72573;SDS011;60603;52.548;13.420;2023-04-15T09:03:10;17.27;;;10.40;;
72573;SDS011;60603;52.548;13.420;2023-04-15T09:05:36;17.88;;;10.27;;
72573;SDS011;60603;52.548;13.420;2023-04-15T09:08:02;16.35;;;10.00;;
72573;SDS011;60603;52.548;13.420;2023-04-15T09:10:28;17.20;;;10.25;;
72573;SDS011;60603;52.548;13.420;2023-04-15T09:12:54;21.80;;;10.95;;
72573;SDS011;60603;52.548;13.420;2023-04-15T09:15:23;16.58;;;9.93;;
72573;SDS011;60603;52.548;13.420;2023-04-15T09:17:49;16.98;;;9.80;;
72573;SDS011;60603;52.548;13.420;2023-04-15T09:20:15;17.83;;;10.38;;
72573;SDS011;60603;52.548;13.420;2023-04-15T09:22:43;16.48;;;9.63;;
72573;SDS011;60603;52.548;13.420;2023-04-15T09:27:46;19.08;;;9.10;;
72573;SDS011;60603;52.548;13.420;2023-04-15T09:30:13;18.20;;;10.02;;
72573;SDS011;60603;52.548;13.420;2023-04-15T09:32:53;15.98;;;8.88;;
72573;SDS011;60603;52.548;13.420;2023-04-15T09:35:21;15.95;;;9.43;;
72573;SDS011;60603;52.548;13.420;2023-04-15T09:37:50;15.98;;;9.85;;
72573;SDS011;60603;52.548;13.420;2023-04-15T09:45:32;17.30;;;9.32;;
72573;SDS011;60603;52.548;13.420;2023-04-15T09:47:59;16.73;;;9.70;;
72573;SDS011;60603;52.548;13.420;2023-04-15T09:50:42;16.27;;;9.70;;
72573;SDS011;60603;52.548;13.420;2023-04-15T09:53:09;15.48;;;9.55;;
72573;SDS011;60603;52.548;13.420;2023-04-15T09:55:36;16.92;;;9.90;;
72573;SDS011;60603;52.548;13.420;2023-04-15T09:58:07;17.23;;;9.60;;
72573;SDS011;60603;52.548;13.420;2023-04-15T10:00:34;18.95;;;10.45;;
72573;SDS011;60603;52.548;13.420;2023-04-15T10:03:01;19.35;;;11.05;;
72573;SDS011;60603;52.548;13.420;2023-04-15T10:05:27;17.30;;;10.73;;
72573;SDS011;60603;52.548;13.420;2023-04-15T10:07:53;18.50;;;10.38;;
72573;SDS011;60603;52.548;13.420;2023-04-15T10:10:19;14.77;;;9.57;;
72573;SDS011;60603;52.548;13.420;2023-04-15T10:12:45;17.80;;;10.52;;
72573;SDS011;60603;52.548;13.420;2023-04-15T10:15:14;16.88;;;10.45;;
72573;SDS011;60603;52.548;13.420;2023-04-15T10:17:42;17.95;;;11.38;;
72573;SDS011;60603;52.548;13.420;2023-04-15T10:20:08;17.63;;;10.35;;
72573;SDS011;60603;52.548;13.420;2023-04-15T10:22:35;17.30;;;9.85;;
72573;SDS011;60603;52.548;13.420;2023-04-15T10:25:01;16.63;;;10.02;;
72573;SDS011;60603;52.548;13.420;2023-04-15T10:27:27;14.68;;;9.52;;
72573;SDS011;60603;52.548;13.420;2023-04-15T10:29:53;15.13;;;9.20;;
72573;SDS011;60603;52.548;13.420;2023-04-15T10:32:20;16.40;;;9.98;;
72573;SDS011;60603;52.548;13.420;2023-04-15T10:34:47;17.17;;;10.15;;
72573;SDS011;60603;52.548;13.420;2023-04-15T10:37:19;17.17;;;10.52;;
72573;SDS011;60603;52.548;13.420;2023-04-15T10:39:45;18.20;;;9.05;;
72573;SDS011;60603;52.548;13.420;2023-04-15T10:42:13;20.73;;;10.30;;
72573;SDS011;60603;52.548;13.420;2023-04-15T10:44:58;18.33;;;9.50;;
72573;SDS011;60603;52.548;13.420;2023-04-15T10:47:24;16.50;;;9.82;;
72573;SDS011;60603;52.548;13.420;2023-04-15T10:49:56;18.50;;;11.45;;
72573;SDS011;60603;52.548;13.420;2023-04-15T10:52:23;17.52;;;10.07;;
72573;SDS011;60603;52.548;13.420;2023-04-15T10:55:00;15.70;;;9.20;;
72573;SDS011;60603;52.548;13.420;2023-04-15T10:57:33;18.13;;;10.43;;
72573;SDS011;60603;52.548;13.420;2023-04-15T11:00:14;16.60;;;10.30;;
72573;SDS011;60603;52.548;13.420;2023-04-15T11:02:57;16.00;;;9.32;;
72573;SDS011;60603;52.548;13.420;2023-04-15T11:08:14;14.75;;;9.77;;
72573;SDS011;60603;52.548;13.420;2023-04-15T11:15:39;17.30;;;10.10;;
72573;SDS011;60603;52.548;13.420;2023-04-15T11:18:12;16.67;;;9.77;;
72573;SDS011;60603;52.548;13.420;2023-04-15T11:20:40;18.38;;;10.95;;
72573;SDS011;60603;52.548;13.420;2023-04-15T11:23:07;16.55;;;10.20;;
72573;SDS011;60603;52.548;13.420;2023-04-15T11:25:36;16.90;;;9.88;;
72573;SDS011;60603;52.548;13.420;2023-04-15T11:28:02;15.55;;;9.75;;
72573;SDS011;60603;52.548;13.420;2023-04-15T11:30:30;17.05;;;10.68;;
72573;SDS011;60603;52.548;13.420;2023-04-15T11:33:01;18.63;;;11.02;;
72573;SDS011;60603;52.548;13.420;2023-04-15T11:35:29;16.73;;;10.13;;
72573;SDS011;60603;52.548;13.420;2023-04-15T11:37:55;14.38;;;9.27;;
72573;SDS011;60603;52.548;13.420;2023-04-15T11:40:22;13.23;;;8.80;;
72573;SDS011;60603;52.548;13.420;2023-04-15T11:43:09;15.85;;;9.23;;
72573;SDS011;60603;52.548;13.420;2023-04-15T11:45:36;17.23;;;9.80;;
72573;SDS011;60603;52.548;13.420;2023-04-15T11:48:09;17.38;;;9.80;;
72573;SDS011;60603;52.548;13.420;2023-04-15T11:50:36;16.30;;;9.65;;
72573;SDS011;60603;52.548;13.420;2023-04-15T11:53:05;15.40;;;9.98;;
72573;SDS011;60603;52.548;13.420;2023-04-15T11:55:45;15.27;;;9.20;;
72573;SDS011;60603;52.548;13.420;2023-04-15T11:58:18;15.50;;;8.65;;
72573;SDS011;60603;52.548;13.420;2023-04-15T12:03:34;19.30;;;11.02;;
72573;SDS011;60603;52.548;13.420;2023-04-15T12:11:40;16.58;;;10.15;;
72573;SDS011;60603;52.548;13.420;2023-04-15T12:14:11;19.00;;;11.15;;
72573;SDS011;60603;52.548;13.420;2023-04-15T12:16:39;17.20;;;9.68;;
72573;SDS011;60603;52.548;13.420;2023-04-15T12:19:06;16.63;;;9.93;;
72573;SDS011;60603;52.548;13.420;2023-04-15T12:21:38;17.10;;;10.52;;
72573;SDS011;60603;52.548;13.420;2023-04-15T12:24:06;16.48;;;10.00;;
72573;SDS011;60603;52.548;13.420;2023-04-15T12:26:36;18.27;;;9.52;;
72573;SDS011;60603;52.548;13.420;2023-04-15T12:29:11;15.23;;;9.48;;
72573;SDS011;60603;52.548;13.420;2023-04-15T12:31:48;16.00;;;9.57;;
72573;SDS011;60603;52.548;13.420;2023-04-15T12:36:54;17.52;;;9.88;;
72573;SDS011;60603;52.548;13.420;2023-04-15T12:39:26;12.57;;;7.70;;
72573;SDS011;60603;52.548;13.420;2023-04-15T12:41:53;15.63;;;8.57;;
72573;SDS011;60603;52.548;13.420;2023-04-15T12:44:20;15.73;;;9.50;;
72573;SDS011;60603;52.548;13.420;2023-04-15T12:46:47;15.82;;;8.75;;
72573;SDS011;60603;52.548;13.420;2023-04-15T12:49:13;15.88;;;9.32;;
72573;SDS011;60603;52.548;13.420;2023-04-15T12:51:40;12.98;;;8.38;;
72573;SDS011;60603;52.548;13.420;2023-04-15T12:54:06;17.30;;;9.00;;
72573;SDS011;60603;52.548;13.420;2023-04-15T12:56:32;14.68;;;8.73;;
72573;SDS011;60603;52.548;13.420;2023-04-15T12:58:58;15.75;;;8.90;;
72573;SDS011;60603;52.548;13.420;2023-04-15T13:01:23;12.55;;;8.10;;
72573;SDS011;60603;52.548;13.420;2023-04-15T13:03:49;15.20;;;8.63;;
72573;SDS011;60603;52.548;13.420;2023-04-15T13:06:15;12.95;;;7.90;;
72573;SDS011;60603;52.548;13.420;2023-04-15T13:08:41;12.73;;;7.50;;
72573;SDS011;60603;52.548;13.420;2023-04-15T13:11:07;11.77;;;7.75;;
72573;SDS011;60603;52.548;13.420;2023-04-15T13:13:33;11.95;;;7.15;;
72573;SDS011;60603;52.548;13.420;2023-04-15T13:15:59;11.77;;;7.82;;
72573;SDS011;60603;52.548;13.420;2023-04-15T13:18:24;13.27;;;7.93;;
72573;SDS011;60603;52.548;13.420;2023-04-15T13:20:50;13.45;;;7.95;;
72573;SDS011;60603;52.548;13.420;2023-04-15T13:23:16;13.30;;;8.00;;
72573;SDS011;60603;52.548;13.420;2023-04-15T13:25:42;13.65;;;8.27;;
72573;SDS011;60603;52.548;13.420;2023-04-15T13:28:09;11.70;;;6.55;;
72573;SDS011;60603;52.548;13.420;2023-04-15T13:30:36;15.00;;;7.50;;
72573;SDS011;60603;52.548;13.420;2023-04-15T13:33:03;12.38;;;6.82;;
72573;SDS011;60603;52.548;13.420;2023-04-15T13:35:29;10.18;;;6.72;;
72573;SDS011;60603;52.548;13.420;2023-04-15T13:37:56;10.77;;;6.15;;
72573;SDS011;60603;52.548;13.420;2023-04-15T13:40:22;12.57;;;7.07;;
72573;SDS011;60603;52.548;13.420;2023-04-15T13:42:47;10.38;;;5.93;;
72573;SDS011;60603;52.548;13.420;2023-04-15T13:45:13;13.10;;;7.63;;
72573;SDS011;60603;52.548;13.420;2023-04-15T13:47:39;10.82;;;6.95;;
72573;SDS011;60603;52.548;13.420;2023-04-15T13:50:05;10.93;;;6.90;;
72573;SDS011;60603;52.548;13.420;2023-04-15T13:52:31;13.13;;;7.47;;
72573;SDS011;60603;52.548;13.420;2023-04-15T13:54:57;13.23;;;7.40;;
72573;SDS011;60603;52.548;13.420;2023-04-15T13:57:23;13.27;;;7.93;;
72573;SDS011;60603;52.548;13.420;2023-04-15T13:59:50;12.80;;;7.32;;
72573;SDS011;60603;52.548;13.420;2023-04-15T14:02:15;12.23;;;7.60;;
72573;SDS011;60603;52.548;13.420;2023-04-15T14:04:41;13.57;;;8.13;;
72573;SDS011;60603;52.548;13.420;2023-04-15T14:07:07;11.35;;;7.20;;
72573;SDS011;60603;52.548;13.420;2023-04-15T14:09:33;11.85;;;6.28;;
72573;SDS011;60603;52.548;13.420;2023-04-15T14:11:59;11.15;;;6.43;;
72573;SDS011;60603;52.548;13.420;2023-04-15T14:14:25;10.50;;;6.30;;
72573;SDS011;60603;52.548;13.420;2023-04-15T14:16:51;10.60;;;6.55;;
72573;SDS011;60603;52.548;13.420;2023-04-15T14:19:17;11.25;;;6.32;;
72573;SDS011;60603;52.548;13.420;2023-04-15T14:21:43;8.73;;;5.95;;
72573;SDS011;60603;52.548;13.420;2023-04-15T14:24:17;10.20;;;5.68;;
72573;SDS011;60603;52.548;13.420;2023-04-15T14:26:42;10.98;;;6.55;;
72573;SDS011;60603;52.548;13.420;2023-04-15T14:29:10;11.57;;;6.75;;
72573;SDS011;60603;52.548;13.420;2023-04-15T14:31:35;11.25;;;7.22;;
72573;SDS011;60603;52.548;13.420;2023-04-15T14:34:02;9.73;;;6.38;;
72573;SDS011;60603;52.548;13.420;2023-04-15T14:36:28;10.90;;;6.20;;
72573;SDS011;60603;52.548;13.420;2023-04-15T14:38:54;10.57;;;6.28;;
72573;SDS011;60603;52.548;13.420;2023-04-15T14:41:19;10.05;;;6.68;;